Time;durP1;ratioP1;P1;durP2;ratioP2;P2;SDS_P1;SDS_P2;PMS_P1;PMS_P2;Temp;Humidity;BMP_temperature;BMP_pressure;BME280_temperature;BME280_humidity;BME280_pressure;Samples;Min_cycle;Max_cycle;Signal;HPM_P1;HPM_P2
2022/02/23 00:01:21;;;;;;;6.72;1.85;;;;;;;9.67;58.44;102110.78;4967824;28;114323;-74
2022/02/23 00:03:48;;;;;;;13.00;2.03;;;;;;;9.64;58.18;102122.28;4970625;28;124165;-73
2022/02/23 00:06:16;;;;;;;7.53;1.92;;;;;;;9.62;58.28;102131.16;4968253;28;124471;-73
2022/02/23 00:08:43;;;;;;;15.93;2.20;;;;;;;9.60;58.27;102135.63;4968408;28;114375;-73
2022/02/23 00:11:11;;;;;;;15.30;2.08;;;;;;;9.55;58.54;102128.66;4968237;28;114384;-73
2022/02/23 00:13:40;;;;;;;4.97;1.60;;;;;;;9.53;58.56;102130.47;4953275;28;124011;-73
2022/02/23 00:16:07;;;;;;;9.65;2.00;;;;;;;9.50;58.18;102143.72;4968268;28;123726;-73
2022/02/23 00:18:35;;;;;;;12.18;1.90;;;;;;;9.48;58.62;102148.19;4967993;28;116172;-73
2022/02/23 00:21:02;;;;;;;12.07;1.83;;;;;;;9.46;58.64;102150.00;4969317;28;114706;-74
2022/02/23 00:23:29;;;;;;;9.55;1.80;;;;;;;9.44;58.61;102157.09;4970038;28;123812;-74
2022/02/23 00:25:56;;;;;;;10.45;2.03;;;;;;;9.42;58.63;102158.88;4966836;28;123876;-73
2022/02/23 00:28:24;;;;;;;7.97;2.08;;;;;;;9.38;58.31;102157.22;4969288;28;114365;-73
2022/02/23 00:30:51;;;;;;;11.98;1.70;;;;;;;9.39;58.60;102164.22;4967535;28;114390;-74
2022/02/23 00:33:18;;;;;;;7.32;1.70;;;;;;;9.36;58.63;102158.97;4968940;28;123309;-74
2022/02/23 00:35:46;;;;;;;11.80;2.33;;;;;;;9.34;58.48;102152.84;4968232;28;124527;-73
2022/02/23 00:38:13;;;;;;;6.25;1.63;;;;;;;9.33;58.79;102153.78;4968526;28;114383;-74
2022/02/23 00:40:41;;;;;;;12.38;1.80;;;;;;;9.32;58.37;102160.84;4968750;28;113165;-73
2022/02/23 00:43:08;;;;;;;8.15;1.80;;;;;;;9.32;58.78;102157.31;4969432;28;124260;-73
2022/02/23 00:45:36;;;;;;;8.15;1.25;;;;;;;9.31;58.58;102158.22;4971470;28;124295;-73
2022/02/23 00:48:03;;;;;;;8.27;1.30;;;;;;;9.30;58.69;102162.59;4971631;28;114067;-73
2022/02/23 00:50:30;;;;;;;8.40;1.40;;;;;;;9.29;58.54;102162.66;4972336;28;113003;-74
2022/02/23 00:52:58;;;;;;;9.25;1.90;;;;;;;9.28;58.26;102166.19;4972418;28;124970;-73
2022/02/23 00:55:25;;;;;;;8.38;2.00;;;;;;;9.28;58.50;102166.19;4971140;28;124228;-73
2022/02/23 00:57:52;;;;;;;13.63;1.83;;;;;;;9.27;58.39;102165.34;4971609;28;114731;-73
2022/02/23 01:00:20;;;;;;;10.38;2.17;;;;;;;9.27;58.66;102165.34;4971267;28;113988;-73
2022/02/23 01:02:47;;;;;;;12.00;2.03;;;;;;;9.26;58.66;102168.00;4972036;28;124315;-73
2022/02/23 01:05:15;;;;;;;10.82;1.50;;;;;;;9.25;58.69;102175.06;4973897;28;123924;-73
2022/02/23 01:07:42;;;;;;;7.53;1.90;;;;;;;9.25;58.46;102182.09;4970878;28;115796;-73
2022/02/23 01:10:10;;;;;;;10.93;1.85;;;;;;;9.22;58.39;102177.75;4970577;28;114826;-73
2022/02/23 01:12:37;;;;;;;8.60;1.88;;;;;;;9.20;58.24;102184.84;4972325;28;124388;-73
2022/02/23 01:15:06;;;;;;;6.97;1.50;;;;;;;9.18;58.39;102191.06;4955976;28;122922;-73
2022/02/23 01:17:34;;;;;;;6.78;1.70;;;;;;;9.16;58.57;102199.00;4971084;28;115032;-73
2022/02/23 01:20:03;;;;;;;7.43;1.77;;;;;;;9.13;58.29;102194.63;4970919;28;114061;-73
2022/02/23 01:22:30;;;;;;;8.32;1.50;;;;;;;9.11;58.25;102193.78;4971845;28;123958;-73
2022/02/23 01:25:00;;;;;;;10.30;1.75;;;;;;;9.07;58.46;102200.03;4974013;28;123827;-73
2022/02/23 01:27:27;;;;;;;15.85;2.03;;;;;;;9.04;58.21;102194.81;4939951;28;113802;-74
2022/02/23 01:29:56;;;;;;;9.20;2.13;;;;;;;9.02;58.57;102207.16;4972483;28;114418;-73
2022/02/23 01:32:24;;;;;;;11.45;1.98;;;;;;;8.99;58.34;102220.44;4970628;28;123810;-75
2022/02/23 01:34:51;;;;;;;5.75;1.33;;;;;;;8.95;58.31;102216.09;4970516;28;123984;-73
2022/02/23 01:37:20;;;;;;;8.60;1.75;;;;;;;8.93;58.49;102228.47;4970890;28;114377;-74
2022/02/23 01:39:47;;;;;;;7.70;1.40;;;;;;;8.88;58.42;102220.59;4969559;28;114050;-73
2022/02/23 01:42:16;;;;;;;10.75;1.70;;;;;;;8.84;58.44;102224.19;4971018;28;124007;-74
2022/02/23 01:44:43;;;;;;;10.25;1.80;;;;;;;8.81;58.38;102218.09;4972012;28;122822;-73
2022/02/23 01:47:10;;;;;;;6.70;1.42;;;;;;;8.75;58.42;102219.91;4969708;28;114078;-74
2022/02/23 01:49:37;;;;;;;9.07;2.00;;;;;;;8.72;58.70;102224.38;4970783;28;114438;-73
2022/02/23 01:52:10;;;;;;;9.95;1.63;;;;;;;8.68;58.59;102231.50;4971550;28;124105;-74
2022/02/23 01:54:37;;;;;;;9.13;1.50;;;;;;;8.65;58.63;102231.53;4971389;28;123753;-73
2022/02/23 01:57:05;;;;;;;9.10;1.67;;;;;;;8.62;58.48;102223.63;4972483;28;115119;-73
2022/02/23 01:59:32;;;;;;;10.07;2.03;;;;;;;8.61;58.95;102227.19;4972379;28;114505;-73
2022/02/23 02:02:00;;;;;;;8.70;1.60;;;;;;;8.59;58.60;102226.34;4969218;28;124102;-73
2022/02/23 02:04:27;;;;;;;10.45;1.75;;;;;;;8.56;58.96;102235.16;4971325;28;124411;-73
2022/02/23 02:06:54;;;;;;;10.18;1.65;;;;;;;8.54;58.86;102236.97;4970551;28;114435;-73
2022/02/23 02:09:21;;;;;;;10.50;1.77;;;;;;;8.52;58.76;102232.59;4972690;28;114261;-73
2022/02/23 02:11:48;;;;;;;9.85;1.73;;;;;;;8.51;59.01;102236.13;4970808;28;123719;-74
2022/02/23 02:14:16;;;;;;;6.90;1.33;;;;;;;8.49;58.97;102245.84;4970363;28;123962;-73
2022/02/23 02:16:43;;;;;;;8.75;2.00;;;;;;;8.47;59.02;102248.50;4970313;28;114081;-73
2022/02/23 02:19:10;;;;;;;7.10;1.50;;;;;;;8.46;58.92;102254.69;4971869;28;113750;-73
2022/02/23 02:21:57;;;;;;;7.22;1.95;;;;;;;8.44;58.79;102255.56;4970841;28;123844;-73
2022/02/23 02:24:30;;;;;;;8.10;2.00;;;;;;;8.42;59.03;102257.38;4955195;28;123843;-74
2022/02/23 02:27:00;;;;;;;7.57;1.70;;;;;;;8.41;58.89;102266.16;4970205;28;114623;-74
2022/02/23 02:29:28;;;;;;;10.25;1.80;;;;;;;8.41;58.98;102263.53;4970095;28;114175;-73
2022/02/23 02:31:55;;;;;;;10.15;1.85;;;;;;;8.38;59.36;102272.34;4969033;28;123959;-73
2022/02/23 02:34:23;;;;;;;9.38;1.70;;;;;;;8.37;59.25;102276.75;4969951;28;124037;-73
2022/02/23 02:36:50;;;;;;;6.47;1.48;;;;;;;8.36;59.17;102285.59;4965360;28;114298;-74
2022/02/23 02:39:21;;;;;;;11.07;1.85;;;;;;;8.35;59.20;102294.38;4951461;28;114267;-73
2022/02/23 02:41:48;;;;;;;7.30;1.75;;;;;;;8.33;59.16;102288.25;4951222;28;123051;-74
2022/02/23 02:44:16;;;;;;;7.00;1.40;;;;;;;8.30;59.08;102285.63;4951880;28;123268;-73
2022/02/23 02:46:44;;;;;;;9.82;1.90;;;;;;;8.30;58.79;102284.78;4949770;28;115969;-74
2022/02/23 02:49:12;;;;;;;9.10;1.88;;;;;;;8.27;59.47;102290.97;4951443;28;114468;-74
2022/02/23 02:51:40;;;;;;;8.75;1.90;;;;;;;8.27;58.99;102290.97;4949171;28;124471;-73
2022/02/23 02:54:08;;;;;;;9.82;1.85;;;;;;;8.26;59.09;102291.84;4952654;28;123789;-74
2022/02/23 02:56:37;;;;;;;9.10;1.98;;;;;;;8.25;59.03;102292.75;4951673;28;114549;-74
2022/02/23 02:59:05;;;;;;;10.38;1.88;;;;;;;8.25;59.03;102303.31;4935532;28;113188;-74
2022/02/23 03:01:33;;;;;;;10.35;1.63;;;;;;;8.24;59.41;102301.56;4949001;28;123873;-74
2022/02/23 03:04:01;;;;;;;12.52;2.00;;;;;;;8.25;59.26;102297.13;4952716;28;124253;-74
2022/02/23 03:06:29;;;;;;;9.52;1.63;;;;;;;8.24;59.11;102301.56;4950336;28;114245;-73
2022/02/23 03:08:56;;;;;;;6.38;1.70;;;;;;;8.24;59.23;102301.56;4949704;28;113979;-73
2022/02/23 03:11:24;;;;;;;11.23;1.70;;;;;;;8.24;59.23;102306.84;4948168;28;124426;-73
2022/02/23 03:13:52;;;;;;;9.93;1.77;;;;;;;8.25;59.22;102302.41;4952973;28;124075;-73
2022/02/23 03:16:19;;;;;;;8.05;1.45;;;;;;;8.24;59.07;102306.84;4960561;28;114298;-73
2022/02/23 03:18:46;;;;;;;7.10;1.50;;;;;;;8.22;59.16;102313.91;4961803;28;113908;-74
2022/02/23 03:21:13;;;;;;;7.75;1.35;;;;;;;8.23;59.17;102305.09;4970056;28;123889;-73
2022/02/23 03:23:41;;;;;;;12.57;1.85;;;;;;;8.22;59.33;102305.97;4971216;28;124159;-74
2022/02/23 03:26:09;;;;;;;9.50;1.58;;;;;;;8.21;59.29;102312.13;4971093;28;114222;-74
2022/02/23 03:28:38;;;;;;;11.93;1.73;;;;;;;8.21;59.09;102312.13;4972077;28;114092;-73
2022/02/23 03:31:09;;;;;;;7.95;1.80;;;;;;;8.19;58.99;102309.53;4967978;28;123859;-73
2022/02/23 03:33:42;;;;;;;10.75;1.90;;;;;;;8.18;58.96;102317.47;4970561;28;124116;-74
2022/02/23 03:36:11;;;;;;;9.70;1.75;;;;;;;8.16;59.13;102324.53;4969826;28;115801;-73
2022/02/23 03:38:40;;;;;;;6.88;1.50;;;;;;;8.14;58.97;102326.31;4969086;28;115210;-73
2022/02/23 03:41:07;;;;;;;10.02;1.80;;;;;;;8.11;59.10;102323.69;4967983;28;124302;-74
2022/02/23 03:43:36;;;;;;;13.13;1.95;;;;;;;8.10;59.01;102324.56;4970654;28;123601;-73
2022/02/23 03:46:05;;;;;;;7.85;1.77;;;;;;;8.08;59.17;102321.09;4972658;28;96792;-73
2022/02/23 03:48:33;;;;;;;9.85;1.92;;;;;;;8.06;59.24;102328.16;4968004;28;113963;-74
2022/02/23 03:51:01;;;;;;;7.68;1.70;;;;;;;8.04;59.03;102335.22;4964913;28;124368;-74
2022/02/23 03:53:28;;;;;;;11.27;1.70;;;;;;;8.02;59.47;102331.72;4951380;28;124077;-73
2022/02/23 03:55:55;;;;;;;8.30;1.55;;;;;;;8.02;59.34;102337.00;4949292;28;114090;-73
2022/02/23 03:58:22;;;;;;;7.63;1.30;;;;;;;8.00;59.24;102339.63;4952232;28;113375;-73
2022/02/23 04:00:50;;;;;;;5.30;1.52;;;;;;;7.99;59.01;102344.03;4947876;28;123826;-73
2022/02/23 04:03:17;;;;;;;9.93;1.88;;;;;;;7.98;58.98;102346.69;4950378;28;124437;-73
2022/02/23 04:05:45;;;;;;;8.32;1.73;;;;;;;7.96;59.08;102349.34;4951201;28;114529;-73
2022/02/23 04:08:12;;;;;;;10.52;1.90;;;;;;;7.95;59.37;102358.16;4949019;28;113582;-73
2022/02/23 04:10:39;;;;;;;6.10;1.65;;;;;;;7.93;59.18;102361.69;4950591;28;124582;-73
2022/02/23 04:13:07;;;;;;;8.52;1.75;;;;;;;7.92;59.35;102367.88;4950188;28;124671;-74
2022/02/23 04:15:34;;;;;;;12.43;1.88;;;;;;;7.90;59.07;102375.78;4934458;28;113712;-73
2022/02/23 04:18:02;;;;;;;6.78;1.77;;;;;;;7.89;59.07;102379.34;4948724;28;113625;-73
2022/02/23 04:20:29;;;;;;;10.73;1.60;;;;;;;7.88;59.04;102393.41;4949952;28;123709;-73
2022/02/23 04:22:57;;;;;;;7.30;1.98;;;;;;;7.86;59.06;102379.34;4949952;28;123661;-73
2022/02/23 04:25:24;;;;;;;12.98;2.00;;;;;;;7.84;59.19;102386.41;4948234;28;115511;-73
2022/02/23 04:27:51;;;;;;;10.23;1.80;;;;;;;7.80;58.98;102380.28;4948796;28;115626;-73
2022/02/23 04:30:19;;;;;;;9.40;1.85;;;;;;;7.78;59.33;102389.97;4949032;28;123710;-73
2022/02/23 04:32:49;;;;;;;10.13;1.85;;;;;;;7.75;59.00;102391.75;4950153;28;124134;-73
2022/02/23 04:35:17;;;;;;;8.45;1.98;;;;;;;7.72;58.97;102383.84;4933827;28;113452;-74
2022/02/23 04:37:44;;;;;;;10.63;1.85;;;;;;;7.69;59.04;102386.53;4951291;28;114092;-73
2022/02/23 04:40:11;;;;;;;8.82;1.80;;;;;;;7.66;59.08;102387.41;4948648;28;125710;-73
2022/02/23 04:42:39;;;;;;;7.80;1.73;;;;;;;7.64;59.40;102390.97;4933623;28;122949;-73
2022/02/23 04:45:06;;;;;;;10.00;1.83;;;;;;;7.60;59.19;102398.88;4931142;28;114052;-73
2022/02/23 04:47:33;;;;;;;11.55;2.00;;;;;;;7.58;58.97;102405.94;4950662;28;114327;-73
2022/02/23 04:50:00;;;;;;;8.18;1.88;;;;;;;7.56;59.44;102406.84;4946850;28;123969;-73
2022/02/23 04:52:28;;;;;;;6.97;1.90;;;;;;;7.54;59.02;102404.22;4948576;28;123828;-72
2022/02/23 04:54:56;;;;;;;9.05;1.83;;;;;;;7.52;58.95;102411.25;4949492;28;114609;-73
2022/02/23 04:57:23;;;;;;;11.75;1.80;;;;;;;7.49;59.31;102411.28;4948596;28;113549;-73
2022/02/23 04:59:51;;;;;;;10.93;2.00;;;;;;;7.44;59.03;102413.09;4947403;28;123949;-73
2022/02/23 05:02:18;;;;;;;9.80;1.50;;;;;;;7.42;59.05;102404.28;4950161;28;123730;-73
2022/02/23 05:04:45;;;;;;;8.93;1.70;;;;;;;7.38;59.20;102408.72;4948407;28;114036;-73
2022/02/23 05:07:14;;;;;;;6.15;1.50;;;;;;;7.37;59.41;102414.00;4948623;28;113880;-73
2022/02/23 05:09:42;;;;;;;8.30;1.50;;;;;;;7.35;59.24;102413.16;4948854;28;123947;-73
2022/02/23 05:12:10;;;;;;;10.55;1.80;;;;;;;7.33;59.36;102414.91;4949164;28;123886;-73
2022/02/23 05:14:38;;;;;;;9.35;2.28;;;;;;;7.32;59.68;102413.16;4947825;28;115384;-73
2022/02/23 05:17:05;;;;;;;6.45;1.75;;;;;;;7.31;59.62;102421.94;4950885;28;115404;-73
2022/02/23 05:19:34;;;;;;;9.77;2.13;;;;;;;7.30;59.52;102422.84;4948161;28;123860;-73
2022/02/23 05:22:05;;;;;;;8.18;1.90;;;;;;;7.29;60.01;102423.69;4950097;28;124304;-73
2022/02/23 05:24:34;;;;;;;6.95;2.05;;;;;;;7.28;59.41;102432.50;4949936;28;114534;-73
2022/02/23 05:27:04;;;;;;;11.20;1.88;;;;;;;7.27;59.74;102436.00;4950374;28;114088;-73
2022/02/23 05:29:32;;;;;;;12.18;1.90;;;;;;;7.26;59.55;102424.59;4948571;28;124244;-73
2022/02/23 05:32:00;;;;;;;9.25;2.13;;;;;;;7.26;59.56;102423.75;4950966;28;124637;-73
2022/02/23 05:34:27;;;;;;;6.70;1.73;;;;;;;7.26;59.53;102429.00;4936382;28;113779;-73
2022/02/23 05:36:54;;;;;;;7.63;1.65;;;;;;;7.26;59.91;102429.00;4953411;28;113189;-73
2022/02/23 05:39:21;;;;;;;9.13;1.80;;;;;;;7.25;59.55;102427.25;4953512;28;123369;-73
2022/02/23 05:41:49;;;;;;;9.23;1.83;;;;;;;7.26;59.83;102429.00;4952615;28;124184;-73
2022/02/23 05:44:17;;;;;;;9.73;1.70;;;;;;;7.25;59.65;102432.50;4936420;28;114170;-73
2022/02/23 05:46:45;;;;;;;6.13;1.75;;;;;;;7.24;59.47;102441.31;4951216;28;113672;-73
2022/02/23 05:49:12;;;;;;;7.57;1.55;;;;;;;7.21;59.44;102437.81;4950621;28;123808;-74
2022/02/23 05:51:41;;;;;;;10.93;1.75;;;;;;;7.20;59.79;102441.31;4950056;28;123867;-73
2022/02/23 05:54:11;;;;;;;6.65;1.58;;;;;;;7.19;59.54;102443.97;4953905;28;114323;-73
2022/02/23 05:56:39;;;;;;;11.48;1.70;;;;;;;7.18;59.84;102443.09;4951469;28;114738;-73
2022/02/23 05:59:07;;;;;;;11.00;1.92;;;;;;;7.18;59.65;102453.63;4951048;28;124126;-73
2022/02/23 06:01:35;;;;;;;7.07;2.15;;;;;;;7.17;59.57;102454.50;4949796;28;123762;-73
2022/02/23 06:04:03;;;;;;;4.32;1.42;;;;;;;7.16;59.65;102454.53;4953025;28;115393;-73
2022/02/23 06:06:31;;;;;;;7.35;1.75;;;;;;;7.16;59.89;102460.69;4950914;28;115625;-73
2022/02/23 06:08:58;;;;;;;9.68;1.95;;;;;;;7.15;59.63;102464.19;4949310;28;124712;-73
2022/02/23 06:11:25;;;;;;;8.20;1.92;;;;;;;7.13;59.49;102459.81;4952353;28;123597;-73
2022/02/23 06:13:53;;;;;;;9.88;1.60;;;;;;;7.11;59.58;102462.44;4953185;28;114064;-73
2022/02/23 06:16:22;;;;;;;8.57;1.92;;;;;;;7.10;59.46;102455.44;4952024;28;114359;-73
2022/02/23 06:18:51;;;;;;;6.55;1.70;;;;;;;7.07;59.72;102455.44;4950283;28;124373;-73
2022/02/23 06:21:19;;;;;;;9.88;1.60;;;;;;;7.06;59.45;102458.94;4935254;28;123321;-73
2022/02/23 06:23:46;;;;;;;7.63;2.20;;;;;;;7.04;59.37;102460.72;4952437;28;113570;-73
2022/02/23 06:26:13;;;;;;;8.55;2.03;;;;;;;7.03;59.93;102458.97;4951686;28;113090;-73
2022/02/23 06:28:40;;;;;;;7.65;2.30;;;;;;;7.01;59.60;102460.75;4935768;28;123516;-73
2022/02/23 06:31:08;;;;;;;8.80;2.17;;;;;;;7.00;59.56;102464.25;4952239;28;122979;-73
2022/02/23 06:33:37;;;;;;;8.55;2.15;;;;;;;6.99;59.99;102457.25;4952410;28;115341;-73
2022/02/23 06:36:05;;;;;;;7.55;1.77;;;;;;;6.99;59.71;102462.50;4937314;28;113279;-72
2022/02/23 06:38:36;;;;;;;4.80;1.70;;;;;;;6.97;59.95;102459.88;4954752;28;123624;-73
2022/02/23 06:41:06;;;;;;;14.32;2.15;;;;;;;6.96;59.92;102473.06;4950113;28;123527;-73
2022/02/23 06:43:34;;;;;;;6.93;1.80;;;;;;;6.97;59.79;102469.56;4953743;28;114323;-73
2022/02/23 06:46:02;;;;;;;6.93;2.10;;;;;;;6.97;60.01;102464.28;4952554;28;114045;-73
2022/02/23 06:48:31;;;;;;;11.80;1.85;;;;;;;6.95;59.85;102474.81;4953728;28;124407;-72
2022/02/23 06:50:58;;;;;;;9.43;2.30;;;;;;;6.95;59.80;102466.03;4933486;28;123794;-73
2022/02/23 06:53:27;;;;;;;6.68;2.10;;;;;;;6.96;59.93;102467.78;4953154;28;114934;-73
2022/02/23 06:55:55;;;;;;;11.32;2.13;;;;;;;6.95;59.70;102471.28;4953013;28;115296;-72
2022/02/23 06:58:23;;;;;;;6.72;1.80;;;;;;;6.95;60.05;102473.91;4951491;28;123811;-73
2022/02/23 07:00:50;;;;;;;9.60;2.65;;;;;;;6.96;59.80;102473.06;4950962;28;124197;-73
2022/02/23 07:03:17;;;;;;;9.63;2.42;;;;;;;6.94;60.04;102469.56;4952124;28;114848;-73
2022/02/23 07:05:44;;;;;;;9.20;2.30;;;;;;;6.93;59.84;102475.69;4951906;28;114155;-72
2022/02/23 07:08:12;;;;;;;7.72;2.30;;;;;;;6.91;59.88;102481.00;4951673;28;124456;-73
2022/02/23 07:10:39;;;;;;;8.00;2.30;;;;;;;6.94;60.19;102480.09;4950825;28;123542;-73
2022/02/23 07:13:08;;;;;;;9.95;2.38;;;;;;;6.94;59.91;102485.34;4952104;28;114110;-73
2022/02/23 07:15:35;;;;;;;11.75;3.10;;;;;;;6.94;59.89;102488.00;4953809;28;115298;-72
2022/02/23 07:18:04;;;;;;;10.90;2.60;;;;;;;6.95;60.23;102487.09;4953241;28;124077;-72
2022/02/23 07:20:31;;;;;;;6.40;2.17;;;;;;;6.96;60.20;102488.84;4951331;28;124254;-72
2022/02/23 07:22:59;;;;;;;7.97;2.70;;;;;;;6.99;60.33;102495.00;4952627;28;114674;-72
2022/02/23 07:25:26;;;;;;;8.80;2.28;;;;;;;7.01;60.23;102492.38;4951294;28;113580;-72
2022/02/23 07:27:54;;;;;;;10.07;2.70;;;;;;;7.04;60.25;102502.88;4933746;28;124844;-72
2022/02/23 07:30:21;;;;;;;11.63;2.50;;;;;;;7.06;60.35;102501.09;4935633;28;123447;-72
2022/02/23 07:32:49;;;;;;;12.68;2.67;;;;;;;7.08;60.33;102499.34;4952275;28;114126;-73
2022/02/23 07:35:18;;;;;;;10.38;2.97;;;;;;;7.10;60.60;102497.59;4952215;28;114016;-73
2022/02/23 07:37:46;;;;;;;11.07;2.92;;;;;;;7.14;60.41;102509.88;4950939;28;124231;-72
2022/02/23 07:40:20;;;;;;;10.90;2.97;;;;;;;7.16;60.32;102510.75;4949982;28;124311;-72
2022/02/23 07:43:07;;;;;;;13.43;3.20;;;;;;;7.19;60.37;102510.72;4952187;28;115335;-73
2022/02/23 07:45:40;;;;;;;10.77;3.22;;;;;;;7.22;60.43;102513.34;4952023;28;114924;-73
2022/02/23 07:48:10;;;;;;;11.52;3.75;;;;;;;7.25;60.65;102511.56;4950786;28;124645;-73
2022/02/23 07:50:38;;;;;;;10.35;3.65;;;;;;;7.28;60.79;102511.56;4935259;28;124004;-73
2022/02/23 07:53:06;;;;;;;9.27;3.67;;;;;;;7.32;60.48;102513.31;4952339;28;114592;-73
2022/02/23 07:55:33;;;;;;;12.65;3.83;;;;;;;7.34;60.44;102516.81;4950921;28;114005;-73
2022/02/23 07:58:03;;;;;;;15.95;4.40;;;;;;;7.38;60.58;102515.91;4950272;28;124783;-73
2022/02/23 08:00:32;;;;;;;12.88;4.13;;;;;;;7.42;60.85;102515.00;4951282;28;124067;-73
2022/02/23 08:03:00;;;;;;;19.05;4.13;;;;;;;7.45;60.68;102520.25;4952533;28;114747;-73
2022/02/23 08:05:28;;;;;;;10.40;4.75;;;;;;;7.49;60.55;102524.63;4936332;28;113355;-72
2022/02/23 08:07:55;;;;;;;12.52;4.30;;;;;;;7.54;60.85;102536.03;4949718;28;124074;-72
2022/02/23 08:10:24;;;;;;;12.45;4.93;;;;;;;7.58;60.77;102535.13;4934785;28;123344;-73
2022/02/23 08:12:55;;;;;;;16.85;4.70;;;;;;;7.64;60.99;102538.63;4935838;28;113923;-73
2022/02/23 08:21:01;;;;;;;12.93;4.80;;;;;;;7.80;61.08;102532.41;4951145;28;123832;-73
2022/02/23 08:23:28;;;;;;;15.82;5.88;;;;;;;7.85;60.92;102529.72;4935313;28;113908;-73
2022/02/23 08:25:56;;;;;;;16.60;5.53;;;;;;;7.90;60.93;102531.44;4951012;28;113964;-73
2022/02/23 08:28:23;;;;;;;12.25;5.40;;;;;;;7.96;61.04;102530.50;4950158;28;124520;-72
2022/02/23 08:30:52;;;;;;;17.38;6.38;;;;;;;8.03;61.14;102536.63;4949140;28;123577;-72
2022/02/23 08:33:19;;;;;;;13.18;5.50;;;;;;;8.10;60.83;102538.31;4951226;28;115495;-72
2022/02/23 08:35:46;;;;;;;13.80;5.60;;;;;;;8.16;60.95;102535.66;4953216;28;114393;-73
2022/02/23 08:38:14;;;;;;;18.63;5.68;;;;;;;8.23;61.26;102526.81;4953136;28;123445;-73
2022/02/23 08:40:44;;;;;;;15.55;5.78;;;;;;;8.30;61.12;102533.75;4949424;28;124093;-72
2022/02/23 08:43:12;;;;;;;13.95;5.50;;;;;;;8.36;61.16;102528.47;4952640;28;114234;-74
2022/02/23 08:45:41;;;;;;;18.33;6.70;;;;;;;8.44;60.89;102525.78;4950227;28;114128;-73
2022/02/23 08:48:09;;;;;;;14.55;6.10;;;;;;;8.52;61.03;102528.34;4949779;28;123433;-73
2022/02/23 08:50:37;;;;;;;14.57;6.50;;;;;;;8.59;61.00;102535.31;4949447;28;123979;-73
2022/02/23 08:53:04;;;;;;;15.43;6.05;;;;;;;8.67;60.93;102536.13;4951586;28;114018;-73
2022/02/23 08:55:32;;;;;;;15.48;5.68;;;;;;;8.74;61.24;102531.66;4949061;28;113791;-73
2022/02/23 08:58:01;;;;;;;16.05;5.65;;;;;;;8.82;60.94;102537.72;4934135;28;123331;-73
2022/02/23 09:00:30;;;;;;;17.80;5.97;;;;;;;8.89;61.34;102531.50;4935067;28;123633;-73
2022/02/23 09:03:00;;;;;;;12.55;5.68;;;;;;;8.99;61.19;102528.75;4951542;28;114689;-73
2022/02/23 09:05:28;;;;;;;13.35;6.13;;;;;;;9.06;61.19;102531.31;4935101;28;114083;-73
2022/02/23 09:07:55;;;;;;;12.63;5.25;;;;;;;9.14;61.18;102532.09;4955291;28;124077;-73
2022/02/23 09:10:22;;;;;;;22.33;6.10;;;;;;;9.23;60.91;102543.44;4952209;28;124349;-73
2022/02/23 09:12:49;;;;;;;15.40;5.70;;;;;;;9.32;61.20;102538.03;4954442;28;114313;-73
2022/02/23 09:15:18;;;;;;;16.90;5.85;;;;;;;9.44;61.25;102547.59;4953505;28;114529;-73
2022/02/23 09:17:46;;;;;;;16.08;5.78;;;;;;;9.55;61.06;102535.97;4952678;28;123788;-73
2022/02/23 09:20:13;;;;;;;16.73;5.45;;;;;;;9.67;61.17;102536.72;4953991;28;123982;-73
2022/02/23 09:22:40;;;;;;;15.45;5.30;;;;;;;9.78;60.91;102537.44;4953733;28;115963;-72
2022/02/23 09:25:09;;;;;;;12.68;4.78;;;;;;;9.88;60.98;102544.31;4955924;28;115905;-73
2022/02/23 09:27:36;;;;;;;16.30;4.63;;;;;;;9.98;60.72;102533.59;4952652;28;124570;-73
2022/02/23 09:30:12;;;;;;;13.20;4.75;;;;;;;10.09;60.63;102536.97;4937631;28;123117;-72
2022/02/23 09:32:41;;;;;;;12.47;4.43;;;;;;;10.19;60.63;102538.56;4938008;28;113770;-72
2022/02/23 09:35:10;;;;;;;10.50;4.22;;;;;;;10.28;60.62;102538.44;4954793;28;113736;-72
2022/02/23 09:37:37;;;;;;;14.48;4.72;;;;;;;10.40;60.76;102531.22;4955361;28;123921;-72
2022/02/23 09:40:09;;;;;;;12.65;3.88;;;;;;;10.51;60.41;102529.25;4937661;28;122806;-73
2022/02/23 09:42:37;;;;;;;10.30;4.00;;;;;;;10.61;60.62;102536.13;4952299;28;113986;-73
2022/02/23 09:45:06;;;;;;;10.20;4.05;;;;;;;10.71;60.28;102532.38;4954405;28;114309;-72
2022/02/23 09:47:41;;;;;;;11.50;4.00;;;;;;;10.82;59.91;102533.97;4953929;28;123914;-72
2022/02/23 09:50:18;;;;;;;14.07;3.92;;;;;;;10.93;60.24;102526.69;4951358;28;123634;-72
2022/02/23 09:52:47;;;;;;;11.55;3.65;;;;;;;11.04;60.37;102524.72;4936091;28;114574;-72
2022/02/23 09:55:20;;;;;;;17.33;3.92;;;;;;;11.17;59.88;102530.66;4952147;28;114500;-72
2022/02/23 09:57:48;;;;;;;11.70;3.63;;;;;;;11.30;59.87;102523.28;4936824;28;125384;-72
2022/02/23 10:00:16;;;;;;;12.88;3.38;;;;;;;11.42;59.44;102517.72;4953921;28;123878;-72
2022/02/23 10:02:43;;;;;;;11.45;3.38;;;;;;;11.52;59.39;102525.50;4952813;28;114137;-72
2022/02/23 10:05:12;;;;;;;9.68;2.97;;;;;;;11.62;59.50;102522.59;4953845;28;112679;-72
2022/02/23 10:07:40;;;;;;;10.20;3.05;;;;;;;11.72;59.22;102515.31;4952944;28;123739;-72
2022/02/23 10:10:10;;;;;;;10.20;3.17;;;;;;;11.81;59.04;102515.09;4950950;28;123776;-72
2022/02/23 10:12:38;;;;;;;11.20;3.00;;;;;;;11.88;58.90;102514.03;4953364;28;115398;-72
2022/02/23 10:15:06;;;;;;;9.02;2.80;;;;;;;11.98;58.74;102519.16;4951094;28;115268;-72
2022/02/23 10:17:37;;;;;;;11.75;2.83;;;;;;;12.08;58.44;102520.69;4950446;28;123916;-72
2022/02/23 10:20:25;;;;;;;12.88;3.05;;;;;;;12.17;58.49;102520.47;4951387;28;124073;-72
2022/02/23 10:23:03;;;;;;;11.45;2.60;;;;;;;12.29;58.34;102513.09;4952443;28;114624;-71
2022/02/23 10:25:32;;;;;;;9.23;2.20;;;;;;;12.39;58.11;102509.28;4951183;28;114066;-71
2022/02/23 10:28:20;;;;;;;10.02;1.95;;;;;;;12.47;57.94;102507.31;4954087;28;123498;-72
2022/02/23 10:30:52;;;;;;;10.23;2.22;;;;;;;12.57;57.64;102508.78;4952440;28;124012;-71
2022/02/23 10:33:21;;;;;;;8.32;2.00;;;;;;;12.63;57.41;102508.63;4936358;28;113540;-72
2022/02/23 10:36:13;;;;;;;9.05;2.20;;;;;;;12.73;57.36;102503.06;4951330;28;114625;-71
2022/02/23 10:38:45;;;;;;;7.63;1.90;;;;;;;12.83;56.94;102504.56;4951566;28;124043;-72
2022/02/23 10:41:23;;;;;;;9.20;2.15;;;;;;;12.90;56.85;102495.47;4950050;28;123931;-72
2022/02/23 10:43:51;;;;;;;9.90;2.20;;;;;;;12.99;56.96;102500.53;4953432;28;114603;-71
2022/02/23 10:46:23;;;;;;;10.07;2.03;;;;;;;13.10;56.70;102504.69;4953590;28;113800;-71
2022/02/23 10:48:55;;;;;;;10.00;2.15;;;;;;;13.20;56.47;102506.16;4950958;28;124548;-71
2022/02/23 10:51:25;;;;;;;12.05;2.25;;;;;;;13.28;56.33;102500.59;4950126;28;123764;-71
2022/02/23 10:53:53;;;;;;;8.65;1.90;;;;;;;13.33;55.92;102504.03;4953311;28;115005;-71
2022/02/23 10:56:31;;;;;;;12.25;2.08;;;;;;;13.42;55.88;102494.00;4952864;28;113719;-71
2022/02/23 10:59:06;;;;;;;7.15;1.95;;;;;;;13.49;55.68;102494.69;4936015;28;124156;-71
2022/02/23 11:01:34;;;;;;;9.73;1.80;;;;;;;13.58;55.62;102496.19;4950424;28;123836;-71
2022/02/23 11:04:04;;;;;;;8.38;1.52;;;;;;;13.64;55.32;102488.03;4952865;28;115250;-70
2022/02/23 11:06:32;;;;;;;11.52;2.20;;;;;;;13.71;55.38;102484.25;4950608;28;115282;-70
2022/02/23 11:09:02;;;;;;;4.93;1.55;;;;;;;13.80;55.01;102483.06;4951425;28;124170;-71
2022/02/23 11:11:30;;;;;;;7.47;1.77;;;;;;;13.89;55.10;102487.22;4952079;28;124001;-71
2022/02/23 11:13:58;;;;;;;9.95;1.45;;;;;;;14.00;54.78;102490.41;4953011;28;114214;-70
2022/02/23 11:16:28;;;;;;;5.90;1.30;;;;;;;14.08;54.35;102483.03;4951617;28;114497;-70
2022/02/23 11:18:58;;;;;;;6.25;1.45;;;;;;;14.15;54.29;102481.91;4932673;28;124823;-70
2022/02/23 11:21:32;;;;;;;7.25;1.52;;;;;;;14.23;54.19;102475.44;4951636;28;123960;-70
2022/02/23 11:24:02;;;;;;;8.55;1.45;;;;;;;14.29;53.95;102480.56;4953005;28;114303;-70
2022/02/23 11:26:32;;;;;;;5.70;1.42;;;;;;;14.35;53.73;102475.91;4950933;28;113775;-70
2022/02/23 11:29:14;;;;;;;7.00;1.50;;;;;;;14.42;53.62;102476.53;4950425;28;124422;-70
2022/02/23 11:31:41;;;;;;;7.60;1.50;;;;;;;14.50;53.61;102474.47;4950926;28;123037;-70